Time;durP1;ratioP1;P1;durP2;ratioP2;P2;SDS_P1;SDS_P2;PMS_P1;PMS_P2;Temp;Humidity;BMP_temperature;BMP_pressure;BME280_temperature;BME280_humidity;BME280_pressure;Samples;Min_cycle;Max_cycle;Signal;HPM_P1;HPM_P2
2022/03/27 00:01:40;;;;;;;12.47;3.67;;;;;;;;;;5075784;28;20304;-83
2022/03/27 00:04:07;;;;;;;8.93;3.43;;;2.70;69.20;;;;;;5093569;28;20303;-83
2022/03/27 00:06:32;;;;;;;17.00;3.90;;;3.50;70.80;;;;;;5094103;28;20183;-83
2022/03/27 00:08:58;;;;;;;7.57;3.07;;;2.70;70.40;;;;;;5075340;28;20193;-82
2022/03/27 00:11:24;;;;;;;9.20;2.80;;;2.60;70.40;;;;;;5093740;28;20540;-82
2022/03/27 00:13:59;;;;;;;6.30;3.50;;;3.40;71.30;;;;;;5093321;28;20258;-82
2022/03/27 00:16:25;;;;;;;5.83;3.17;;;2.50;71.20;;;;;;5093494;28;20202;-82
2022/03/27 00:18:51;;;;;;;8.87;2.87;;;;;;;;;;5093351;28;20178;-82
2022/03/27 00:21:20;;;;;;;5.43;2.90;;;;;;;;;;5093679;28;20186;-82
2022/03/27 00:23:47;;;;;;;7.63;2.60;;;2.40;71.30;;;;;;5093246;28;20171;-86
2022/03/27 00:26:14;;;;;;;6.77;3.10;;;2.40;72.80;;;;;;5093652;28;20596;-82
2022/03/27 00:28:39;;;;;;;15.17;4.00;;;3.70;73.60;;;;;;5075742;28;20236;-82
2022/03/27 00:31:07;;;;;;;11.57;4.00;;;3.70;74.40;;;;;;5074901;28;20313;-82
2022/03/27 00:33:35;;;;;;;9.50;3.73;;;2.40;73.80;;;;;;5093221;28;20187;-82
2022/03/27 00:36:03;;;;;;;8.60;2.77;;;2.30;74.30;;;;;;5093277;28;20273;-82
2022/03/27 00:38:29;;;;;;;7.43;3.20;;;2.30;75.10;;;;;;5093344;28;20184;-82
2022/03/27 00:40:55;;;;;;;5.87;3.20;;;2.50;76.20;;;;;;5092986;28;20224;-82
2022/03/27 00:43:22;;;;;;;7.43;2.93;;;2.80;76.90;;;;;;5093299;28;20269;-82
2022/03/27 00:45:49;;;;;;;6.03;3.00;;;2.20;76.80;;;;;;5092867;28;20643;-86
2022/03/27 00:48:17;;;;;;;4.37;2.60;;;3.30;79.30;;;;;;5093246;28;20178;-82
2022/03/27 00:50:43;;;;;;;7.63;3.20;;;2.20;77.40;;;;;;5093213;28;20192;-81
2022/03/27 00:53:09;;;;;;;5.10;3.20;;;2.60;76.70;;;;;;5093304;28;20178;-82
2022/03/27 00:55:35;;;;;;;6.63;2.80;;;2.20;75.60;;;;;;5093086;28;20643;-82
2022/03/27 00:58:01;;;;;;;6.63;3.07;;;3.30;77.10;;;;;;5093003;28;20206;-82
2022/03/27 01:00:59;;;;;;;10.50;2.97;;;2.10;73.70;;;;;;5075373;28;20184;-82
2022/03/27 01:03:26;;;;;;;6.97;2.73;;;2.10;74.10;;;;;;5055769;28;20554;-82
2022/03/27 01:05:53;;;;;;;6.70;2.80;;;2.50;74.90;;;;;;5096343;28;20182;-83
2022/03/27 01:11:19;;;;;;;5.17;2.77;;;2.00;74.40;;;;;;5097341;28;20652;-82
2022/03/27 01:13:55;;;;;;;5.50;2.70;;;1.90;73.80;;;;;;5079398;28;20216;-81
2022/03/27 01:16:38;;;;;;;6.10;2.70;;;2.10;73.70;;;;;;5097107;28;20202;-81
2022/03/27 01:19:04;;;;;;;9.17;3.10;;;1.90;73.30;;;;;;5097309;28;20174;-82
2022/03/27 01:21:30;;;;;;;11.40;4.20;;;;;;;;;;5097297;28;20175;-82
2022/03/27 01:23:56;;;;;;;15.13;4.20;;;1.90;73.60;;;;;;5097612;28;20174;-82
2022/03/27 01:26:23;;;;;;;11.20;3.37;;;;;;;;;;5079200;28;20182;-82
2022/03/27 01:28:50;;;;;;;13.00;4.17;;;1.80;74.30;;;;;;5097508;28;20186;-81
2022/03/27 01:31:16;;;;;;;11.70;3.87;;;;;;;;;;5096924;28;20178;-82
2022/03/27 01:33:42;;;;;;;7.20;2.13;;;1.70;74.10;;;;;;5097106;28;20563;-81
2022/03/27 01:36:08;;;;;;;6.50;2.67;;;1.80;74.80;;;;;;5099479;28;20233;-82
2022/03/27 01:38:34;;;;;;;7.07;2.23;;;1.70;74.60;;;;;;5103293;28;20187;-82
2022/03/27 01:41:00;;;;;;;6.40;2.70;;;1.70;74.80;;;;;;5103682;28;20189;-83
2022/03/27 01:43:26;;;;;;;5.17;2.27;;;1.70;74.80;;;;;;5089854;28;20210;-82
2022/03/27 01:45:51;;;;;;;3.97;2.43;;;2.30;76.00;;;;;;5113252;28;20162;-82
2022/03/27 01:48:17;;;;;;;4.50;2.50;;;1.70;75.20;;;;;;5121661;28;20169;-82
2022/03/27 01:50:42;;;;;;;5.97;2.50;;;1.80;75.50;;;;;;5121333;28;20183;-82
2022/03/27 01:53:08;;;;;;;4.53;2.43;;;1.70;75.20;;;;;;5104094;28;20196;-83
2022/03/27 01:55:34;;;;;;;4.83;2.50;;;1.60;75.80;;;;;;5119842;28;20235;-82
2022/03/27 01:58:00;;;;;;;5.80;2.13;;;1.60;75.90;;;;;;5086803;28;20202;-82
2022/03/27 02:00:25;;;;;;;5.70;2.50;;;1.60;75.50;;;;;;5105761;28;20213;-82
2022/03/27 02:02:52;;;;;;;5.47;2.80;;;;;;;;;;5103833;28;20167;-83
2022/03/27 02:05:19;;;;;;;4.30;2.23;;;1.60;75.10;;;;;;5121160;28;20182;-82
2022/03/27 02:07:45;;;;;;;6.10;2.60;;;;;;;;;;5104154;28;20167;-81
2022/03/27 02:10:11;;;;;;;4.97;1.90;;;1.60;74.70;;;;;;5085108;28;20552;-81
2022/03/27 02:12:37;;;;;;;3.90;2.03;;;1.70;75.20;;;;;;5096195;28;20683;-81
2022/03/27 02:15:07;;;;;;;4.00;2.30;;;1.60;75.20;;;;;;5095731;28;20197;-82
2022/03/27 02:17:39;;;;;;;4.80;2.10;;;1.60;75.80;;;;;;5076517;28;20214;-82
2022/03/27 02:20:09;;;;;;;2.77;1.90;;;1.60;75.70;;;;;;5095596;28;20285;-82
2022/03/27 02:22:35;;;;;;;3.03;1.60;;;1.60;75.60;;;;;;5095538;28;20183;-81
2022/03/27 02:25:01;;;;;;;4.80;2.47;;;3.00;77.60;;;;;;5095811;28;20183;-81
2022/03/27 02:27:26;;;;;;;5.77;2.23;;;2.90;77.60;;;;;;5095296;28;20190;-82
2022/03/27 02:29:52;;;;;;;2.37;1.67;;;;;;;;;;5095869;28;20178;-81
2022/03/27 02:32:19;;;;;;;4.53;2.20;;;1.50;76.30;;;;;;5095770;28;20512;-81
2022/03/27 02:34:45;;;;;;;5.70;1.97;;;2.40;78.00;;;;;;5095464;28;20222;-81
2022/03/27 02:37:13;;;;;;;5.03;2.13;;;2.70;78.00;;;;;;5095404;28;20291;-81
2022/03/27 02:39:39;;;;;;;3.10;2.00;;;;;;;;;;5095799;28;20182;-82
2022/03/27 02:42:05;;;;;;;3.03;2.00;;;1.50;77.30;;;;;;5095082;28;20668;-86
2022/03/27 02:44:31;;;;;;;2.97;2.00;;;1.50;77.20;;;;;;5060385;28;20344;-82
2022/03/27 02:46:57;;;;;;;4.87;1.93;;;;;;;;;;5077087;28;20284;-81
2022/03/27 02:49:23;;;;;;;3.83;1.87;;;1.50;76.80;;;;;;5095222;28;20179;-81
2022/03/27 02:51:49;;;;;;;6.43;2.53;;;;;;;;;;5095313;28;20179;-81
2022/03/27 02:54:14;;;;;;;5.00;2.23;;;1.50;76.90;;;;;;5060575;28;20537;-81
2022/03/27 02:56:40;;;;;;;6.00;2.07;;;2.20;77.90;;;;;;5094990;28;20206;-81
2022/03/27 02:59:06;;;;;;;5.63;2.40;;;1.70;78.10;;;;;;5095043;28;20587;-82
2022/03/27 03:01:32;;;;;;;5.33;2.27;;;1.40;78.50;;;;;;5095178;28;20201;-82
2022/03/27 03:03:58;;;;;;;3.53;2.10;;;1.40;79.10;;;;;;5077167;28;20175;-81
2022/03/27 03:06:25;;;;;;;3.30;2.07;;;;;;;;;;5094995;28;20205;-81
2022/03/27 03:08:51;;;;;;;3.87;2.27;;;1.40;79.00;;;;;;5095283;28;20178;-81
2022/03/27 03:11:20;;;;;;;4.70;2.27;;;1.30;79.90;;;;;;5094834;28;20260;-82
2022/03/27 03:13:47;;;;;;;3.33;2.07;;;1.30;80.20;;;;;;5100707;28;20265;-80
2022/03/27 03:16:14;;;;;;;6.13;2.20;;;1.30;80.80;;;;;;5100620;28;20225;-81
2022/03/27 03:18:42;;;;;;;7.50;2.20;;;1.20;81.00;;;;;;5097808;28;20228;-80
2022/03/27 03:21:07;;;;;;;4.07;2.10;;;1.20;81.90;;;;;;5095638;28;20171;-81
2022/03/27 03:23:33;;;;;;;6.83;2.67;;;1.20;81.80;;;;;;5094925;28;20185;-81
2022/03/27 03:26:00;;;;;;;6.40;2.47;;;1.20;81.80;;;;;;5094552;28;20262;-81
2022/03/27 03:28:26;;;;;;;4.30;2.53;;;;;;;;;;5076136;28;20205;-82
2022/03/27 03:30:52;;;;;;;7.67;2.67;;;1.20;82.50;;;;;;5094701;28;20181;-82
2022/03/27 03:33:19;;;;;;;2.40;1.80;;;;;;;;;;5094326;28;20198;-82
2022/03/27 03:35:45;;;;;;;5.90;2.47;;;1.20;84.10;;;;;;5101015;28;20579;-82
2022/03/27 03:38:11;;;;;;;3.77;2.17;;;2.10;86.50;;;;;;5115041;28;20204;-81
2022/03/27 03:40:37;;;;;;;6.67;2.63;;;1.50;86.70;;;;;;5113880;28;20186;-81
2022/03/27 03:43:03;;;;;;;3.00;2.23;;;1.10;87.10;;;;;;5114618;28;20178;-82
2022/03/27 03:45:29;;;;;;;6.07;2.97;;;1.10;88.80;;;;;;5114211;28;20636;-82
2022/03/27 03:47:55;;;;;;;6.23;2.47;;;;;;;;;;5114575;28;20272;-82
2022/03/27 03:50:21;;;;;;;5.20;2.00;;;;;;;;;;5113108;28;20763;-82
2022/03/27 03:52:47;;;;;;;7.47;3.13;;;1.00;90.30;;;;;;5113785;28;20181;-82
2022/03/27 03:55:13;;;;;;;5.23;2.00;;;1.20;91.00;;;;;;5096343;28;20267;-81
2022/03/27 03:57:38;;;;;;;7.03;2.53;;;2.20;91.70;;;;;;5112586;28;20205;-81
2022/03/27 04:00:05;;;;;;;5.90;2.27;;;2.00;92.10;;;;;;5114350;28;20185;-82
2022/03/27 04:02:30;;;;;;;3.63;2.10;;;0.90;94.90;;;;;;5114763;28;20508;-82
2022/03/27 04:04:56;;;;;;;4.93;2.43;;;0.90;92.60;;;;;;5114797;28;20188;-81
2022/03/27 04:07:21;;;;;;;5.20;2.20;;;0.90;92.80;;;;;;5114624;28;20182;-82
2022/03/27 04:09:47;;;;;;;5.30;2.47;;;0.90;93.30;;;;;;5114360;28;20169;-82
2022/03/27 04:12:13;;;;;;;7.00;3.03;;;1.40;94.00;;;;;;5113957;28;20188;-82
2022/03/27 04:14:39;;;;;;;9.10;3.20;;;2.30;94.80;;;;;;5112672;28;20630;-82
2022/03/27 04:17:05;;;;;;;7.97;3.73;;;0.80;94.90;;;;;;5113913;28;20210;-82
2022/03/27 04:19:31;;;;;;;8.77;3.10;;;;;;;;;;5113937;28;20706;-82
2022/03/27 04:21:57;;;;;;;5.10;2.60;;;;;;;;;;5112900;28;20622;-81
2022/03/27 04:24:23;;;;;;;4.70;2.60;;;0.80;96.20;;;;;;5113599;28;20185;-81
2022/03/27 04:26:49;;;;;;;5.33;2.30;;;2.20;97.70;;;;;;5113668;28;20651;-81
2022/03/27 04:29:14;;;;;;;8.07;2.77;;;1.20;97.90;;;;;;5112758;28;20174;-82
2022/03/27 04:31:41;;;;;;;7.83;2.17;;;0.70;98.40;;;;;;5112906;28;20185;-82
2022/03/27 04:34:08;;;;;;;4.47;2.67;;;0.80;98.70;;;;;;5112284;28;20209;-80
2022/03/27 04:36:34;;;;;;;4.37;2.17;;;0.80;98.60;;;;;;5074794;28;20577;-81
2022/03/27 04:39:00;;;;;;;3.83;2.50;;;0.80;99.30;;;;;;5092775;28;20189;-81
2022/03/27 04:41:25;;;;;;;10.73;3.27;;;1.80;99.90;;;;;;5092934;28;20218;-82
2022/03/27 04:43:51;;;;;;;6.03;2.47;;;1.60;99.90;;;;;;5093341;28;20588;-81
2022/03/27 04:46:18;;;;;;;7.07;2.53;;;2.10;99.90;;;;;;5093176;28;20196;-81
2022/03/27 04:48:45;;;;;;;5.83;2.80;;;0.80;99.90;;;;;;5092962;28;20228;-81
2022/03/27 04:51:11;;;;;;;9.17;2.40;;;0.80;99.90;;;;;;5075189;28;20182;-82
2022/03/27 04:53:37;;;;;;;4.40;2.37;;;2.70;99.90;;;;;;5074712;28;20268;-81
2022/03/27 04:56:03;;;;;;;5.20;2.93;;;1.50;99.90;;;;;;5092988;28;20274;-81
2022/03/27 04:58:28;;;;;;;6.27;3.17;;;0.90;99.90;;;;;;5074685;28;20285;-82
2022/03/27 05:00:54;;;;;;;8.83;2.97;;;0.90;99.90;;;;;;5092515;28;20186;-81
2022/03/27 05:03:19;;;;;;;5.57;3.03;;;0.90;99.90;;;;;;5081778;28;20236;-81
2022/03/27 05:05:47;;;;;;;6.40;3.10;;;0.90;99.90;;;;;;5064016;28;20583;-81
2022/03/27 05:08:12;;;;;;;7.63;3.27;;;0.90;99.90;;;;;;5065452;28;20667;-81
2022/03/27 05:10:39;;;;;;;7.83;3.30;;;0.90;99.90;;;;;;5063610;28;20176;-81
2022/03/27 05:13:05;;;;;;;3.80;2.67;;;1.60;99.90;;;;;;5051274;28;20274;-82
2022/03/27 05:15:31;;;;;;;5.17;2.60;;;;;;;;;;5085649;28;20269;-81
2022/03/27 05:17:58;;;;;;;5.17;3.00;;;0.80;99.90;;;;;;5065419;28;20257;-81
2022/03/27 05:20:29;;;;;;;4.77;2.33;;;0.90;99.90;;;;;;5055910;28;20197;-81
2022/03/27 05:22:56;;;;;;;9.00;2.63;;;0.90;99.90;;;;;;5076142;28;20197;-82
2022/03/27 05:25:22;;;;;;;4.67;2.70;;;1.10;99.90;;;;;;5082611;28;20190;-82
2022/03/27 05:27:53;;;;;;;7.93;2.87;;;0.80;99.90;;;;;;5066983;28;20191;-82
2022/03/27 05:30:21;;;;;;;7.47;3.03;;;1.80;99.90;;;;;;5063709;28;20209;-81
2022/03/27 05:32:48;;;;;;;4.77;2.07;;;0.80;99.90;;;;;;5081328;28;20588;-81
2022/03/27 05:35:15;;;;;;;6.03;2.73;;;;;;;;;;5082853;28;20236;-82
2022/03/27 05:37:43;;;;;;;7.33;3.10;;;0.90;99.90;;;;;;5081426;28;20252;-83
2022/03/27 05:40:11;;;;;;;7.97;2.40;;;0.90;99.90;;;;;;5078767;28;20194;-82
2022/03/27 05:42:37;;;;;;;4.77;2.57;;;;;;;;;;5063277;28;20179;-82
2022/03/27 05:45:04;;;;;;;5.27;2.67;;;1.10;99.90;;;;;;5081922;28;20183;-81
2022/03/27 05:47:30;;;;;;;6.57;3.10;;;1.20;99.90;;;;;;5082907;28;20190;-83
2022/03/27 05:49:56;;;;;;;10.40;2.47;;;1.30;99.90;;;;;;5080894;28;20178;-83
2022/03/27 05:52:23;;;;;;;4.07;2.47;;;2.00;99.90;;;;;;5052181;28;20273;-83
2022/03/27 05:54:49;;;;;;;6.20;3.00;;;;;;;;;;5089776;28;20191;-82
2022/03/27 05:57:16;;;;;;;6.10;2.90;;;1.40;99.90;;;;;;5068278;28;20224;-83
2022/03/27 05:59:42;;;;;;;8.67;3.93;;;1.50;99.90;;;;;;5064277;28;20261;-83
2022/03/27 06:02:08;;;;;;;11.20;3.40;;;1.30;99.90;;;;;;5093678;28;20266;-82
2022/03/27 06:04:34;;;;;;;10.73;4.00;;;1.40;99.90;;;;;;5092064;28;20187;-83
2022/03/27 06:06:59;;;;;;;9.53;4.17;;;1.40;99.90;;;;;;5072831;28;20190;-82
2022/03/27 06:09:25;;;;;;;6.93;3.60;;;1.50;99.90;;;;;;5092018;28;20270;-83
2022/03/27 06:11:51;;;;;;;7.30;2.80;;;1.50;99.90;;;;;;5049237;28;20183;-84
2022/03/27 06:14:16;;;;;;;4.30;2.67;;;1.60;99.90;;;;;;5064692;28;20277;-83
2022/03/27 06:16:42;;;;;;;8.10;2.80;;;1.90;99.90;;;;;;5070174;28;20248;-83
2022/03/27 06:19:08;;;;;;;7.70;3.37;;;2.10;99.90;;;;;;5064464;28;20191;-83
2022/03/27 06:21:33;;;;;;;6.77;2.30;;;1.70;99.90;;;;;;5063442;28;20183;-84
2022/03/27 06:23:59;;;;;;;5.60;2.90;;;3.20;99.90;;;;;;5086955;28;20523;-83
2022/03/27 06:26:24;;;;;;;6.20;2.63;;;1.70;99.90;;;;;;5061880;28;20264;-84
2022/03/27 06:28:50;;;;;;;6.67;3.00;;;2.50;99.90;;;;;;5062394;28;20182;-85
2022/03/27 06:31:16;;;;;;;5.47;2.97;;;1.60;99.90;;;;;;5045890;28;20190;-83
2022/03/27 06:33:42;;;;;;;4.90;2.60;;;1.80;99.90;;;;;;5061143;28;20179;-83
2022/03/27 06:36:08;;;;;;;5.27;2.77;;;1.80;99.90;;;;;;5080804;28;20300;-83
2022/03/27 06:38:33;;;;;;;7.70;3.10;;;1.90;99.90;;;;;;5086480;28;20214;-84
2022/03/27 06:41:02;;;;;;;8.27;3.30;;;2.20;99.90;;;;;;5063140;28;20206;-83
2022/03/27 06:43:28;;;;;;;4.93;2.63;;;;;;;;;;5065545;28;20178;-83
2022/03/27 06:45:54;;;;;;;6.07;3.37;;;2.20;99.90;;;;;;5088627;28;20183;-83
2022/03/27 06:48:19;;;;;;;11.53;3.53;;;2.00;99.90;;;;;;5086368;28;20715;-82
2022/03/27 06:50:45;;;;;;;10.03;3.43;;;2.00;99.90;;;;;;5086486;28;20186;-82
2022/03/27 06:53:14;;;;;;;10.87;3.53;;;1.90;99.90;;;;;;5087489;28;20179;-81
2022/03/27 06:55:41;;;;;;;9.20;3.90;;;2.90;99.90;;;;;;5091674;28;20216;-83
2022/03/27 06:58:07;;;;;;;6.60;3.23;;;;;;;;;;5097584;28;20207;-83
2022/03/27 07:03:18;;;;;;;8.90;4.53;;;;;;;;;;5083495;28;20264;-83
2022/03/27 07:05:45;;;;;;;16.90;7.67;;;2.10;99.90;;;;;;5084192;28;20220;-83
2022/03/27 07:08:15;;;;;;;15.83;8.30;;;2.10;99.90;;;;;;5065438;28;20275;-83
2022/03/27 07:10:43;;;;;;;26.13;13.40;;;2.50;99.90;;;;;;5086152;28;20182;-82
2022/03/27 07:13:10;;;;;;;14.27;4.73;;;2.20;99.90;;;;;;5080448;28;20249;-83
2022/03/27 07:15:37;;;;;;;6.80;4.20;;;2.40;99.90;;;;;;5084490;28;20178;-83
2022/03/27 07:18:03;;;;;;;9.70;3.57;;;2.30;99.90;;;;;;5066715;28;20746;-82
2022/03/27 07:20:32;;;;;;;9.40;4.20;;;2.40;99.90;;;;;;5085232;28;20180;-83
2022/03/27 07:23:04;;;;;;;8.27;3.53;;;2.40;99.90;;;;;;5082974;28;20188;-84
2022/03/27 07:25:34;;;;;;;11.07;3.70;;;3.20;99.90;;;;;;5083415;28;20178;-83
2022/03/27 07:28:00;;;;;;;5.77;2.43;;;4.40;99.90;;;;;;5065253;28;20550;-83
2022/03/27 07:30:25;;;;;;;8.77;2.97;;;3.40;99.90;;;;;;5082757;28;20586;-83
2022/03/27 07:32:54;;;;;;;6.90;2.77;;;2.70;99.90;;;;;;5076958;28;20180;-83
2022/03/27 07:35:20;;;;;;;8.70;3.77;;;2.80;99.90;;;;;;5086887;28;20238;-82
2022/03/27 07:37:47;;;;;;;6.57;2.90;;;2.70;99.90;;;;;;5076829;28;20777;-83
2022/03/27 07:40:14;;;;;;;10.30;3.00;;;3.40;99.90;;;;;;5071822;28;20221;-83
2022/03/27 07:42:47;;;;;;;11.37;3.10;;;2.90;99.90;;;;;;5073784;28;20177;-81
2022/03/27 07:45:14;;;;;;;7.47;2.73;;;3.10;99.90;;;;;;5077706;28;20176;-82
2022/03/27 07:47:40;;;;;;;6.77;3.03;;;2.70;99.90;;;;;;5093680;28;20193;-82
2022/03/27 07:50:07;;;;;;;6.13;2.83;;;3.40;99.90;;;;;;5115264;28;20612;-80
2022/03/27 07:52:34;;;;;;;6.03;2.40;;;3.00;99.90;;;;;;5077720;28;20259;-82
2022/03/27 07:55:00;;;;;;;6.13;3.07;;;3.10;99.90;;;;;;5072670;28;20179;-82
2022/03/27 07:57:27;;;;;;;6.77;2.50;;;3.30;99.90;;;;;;5094334;28;20205;-83
2022/03/27 07:59:53;;;;;;;7.40;3.10;;;3.30;99.90;;;;;;5082677;28;20560;-84
2022/03/27 08:02:19;;;;;;;4.77;2.40;;;3.70;99.90;;;;;;5105585;28;20209;-88
2022/03/27 08:04:45;;;;;;;5.93;2.67;;;3.20;99.50;;;;;;5107848;28;20217;-83
2022/03/27 08:07:10;;;;;;;6.87;2.90;;;4.00;99.40;;;;;;5088000;28;20215;-84
2022/03/27 08:09:36;;;;;;;5.90;2.53;;;3.30;96.30;;;;;;5062471;28;20633;-81
2022/03/27 08:12:03;;;;;;;6.13;2.70;;;3.30;96.60;;;;;;5084150;28;20197;-82
2022/03/27 08:14:31;;;;;;;5.00;2.00;;;;;;;;;;5079652;28;20289;-84
2022/03/27 08:17:00;;;;;;;9.37;2.30;;;3.60;95.20;;;;;;5091508;28;20183;-85
2022/03/27 08:19:26;;;;;;;7.40;2.67;;;;;;;;;;5101212;28;20240;-83
2022/03/27 08:21:53;;;;;;;6.67;2.60;;;3.60;94.80;;;;;;5102817;28;20183;-82
2022/03/27 08:24:20;;;;;;;4.20;2.60;;;3.90;91.90;;;;;;5064630;28;20180;-82
2022/03/27 08:27:00;;;;;;;4.77;2.27;;;3.90;92.20;;;;;;5079991;28;20179;-84
2022/03/27 08:29:28;;;;;;;3.30;2.20;;;3.90;90.60;;;;;;5082505;28;20187;-82
2022/03/27 08:31:54;;;;;;;4.23;2.00;;;3.80;90.30;;;;;;5076680;28;20951;-82
2022/03/27 08:34:21;;;;;;;4.03;1.93;;;3.90;90.70;;;;;;5061483;28;20198;-83
2022/03/27 08:36:47;;;;;;;5.40;2.40;;;4.00;88.60;;;;;;5060854;28;20213;-82
2022/03/27 08:39:13;;;;;;;5.03;2.57;;;4.00;85.90;;;;;;5087317;28;20243;-82
2022/03/27 08:41:47;;;;;;;6.03;2.57;;;4.00;86.50;;;;;;5071359;28;20281;-84
2022/03/27 08:44:21;;;;;;;6.87;2.57;;;3.70;88.70;;;;;;5083548;28;20234;-85
2022/03/27 08:46:48;;;;;;;5.07;2.33;;;4.00;85.50;;;;;;5067784;28;20181;-84
2022/03/27 08:49:17;;;;;;;5.37;2.40;;;4.00;84.40;;;;;;5085541;28;20206;-82
2022/03/27 08:52:01;;;;;;;4.17;2.23;;;4.00;82.40;;;;;;5069463;28;20210;-83
2022/03/27 08:54:40;;;;;;;5.47;2.73;;;4.10;82.40;;;;;;5079688;28;20187;-83
2022/03/27 08:57:09;;;;;;;3.63;1.87;;;4.20;81.00;;;;;;5059138;28;20228;-84
2022/03/27 08:59:37;;;;;;;4.23;2.13;;;4.40;74.70;;;;;;5063992;28;20531;-83
2022/03/27 09:02:03;;;;;;;8.30;3.00;;;4.80;74.80;;;;;;5078590;28;20644;-83
2022/03/27 09:04:31;;;;;;;3.40;2.27;;;4.70;68.20;;;;;;5073870;28;20217;-83
2022/03/27 09:06:57;;;;;;;4.87;2.27;;;4.60;65.40;;;;;;5081298;28;20194;-83
2022/03/27 09:09:22;;;;;;;6.03;1.97;;;4.50;65.20;;;;;;5056013;28;20528;-83
2022/03/27 09:11:49;;;;;;;6.00;2.63;;;4.60;67.20;;;;;;5061123;28;20207;-81
2022/03/27 09:14:16;;;;;;;3.70;2.20;;;4.70;68.40;;;;;;5049413;28;20251;-82
2022/03/27 09:17:02;;;;;;;3.97;2.27;;;4.90;67.60;;;;;;5054568;28;20325;-83
2022/03/27 09:19:43;;;;;;;7.70;2.77;;;5.00;69.10;;;;;;5067405;28;20189;-82
2022/03/27 09:22:18;;;;;;;4.17;2.50;;;5.20;93.10;;;;;;5063897;28;20657;-83
2022/03/27 09:24:47;;;;;;;3.93;2.17;;;5.20;61.40;;;;;;5091396;28;20220;-80
2022/03/27 09:27:14;;;;;;;4.37;2.03;;;;;;;;;;5074077;28;20186;-82
2022/03/27 09:30:00;;;;;;;6.57;2.10;;;4.90;73.80;;;;;;5075173;28;20235;-83
2022/03/27 09:32:27;;;;;;;4.80;2.30;;;8.80;59.90;;;;;;5062088;28;20193;-81
2022/03/27 09:35:09;;;;;;;2.93;2.00;;;5.30;86.60;;;;;;5086193;28;20338;-84
2022/03/27 09:37:41;;;;;;;5.73;2.60;;;5.50;59.30;;;;;;5114592;28;20232;-83
2022/03/27 09:40:08;;;;;;;3.57;2.00;;;5.30;85.80;;;;;;5102719;28;20193;-81
2022/03/27 09:42:37;;;;;;;6.03;2.10;;;;;;;;;;5096660;28;20710;-83
2022/03/27 09:45:20;;;;;;;6.33;3.40;;;5.80;57.20;;;;;;5092401;28;20214;-90
2022/03/27 09:47:50;;;;;;;6.33;2.67;;;5.70;55.60;;;;;;5094299;28;20186;-85
2022/03/27 09:50:38;;;;;;;6.03;2.80;;;5.80;56.00;;;;;;5100158;28;20677;-84
2022/03/27 09:53:22;;;;;;;5.97;2.40;;;6.20;85.30;;;;;;5106137;28;20197;-83
2022/03/27 09:55:59;;;;;;;4.37;1.63;;;6.30;81.30;;;;;;5107042;28;20658;-83
2022/03/27 09:58:34;;;;;;;3.47;1.70;;;6.30;71.20;;;;;;5110567;28;20218;-83
2022/03/27 10:01:14;;;;;;;5.80;2.27;;;6.20;50.50;;;;;;5095831;28;20261;-84
2022/03/27 10:04:13;;;;;;;8.70;1.90;;;6.30;50.60;;;;;;5098657;28;20194;-83
2022/03/27 10:06:40;;;;;;;5.03;1.93;;;6.20;48.80;;;;;;5100839;28;20223;-83
2022/03/27 10:09:13;;;;;;;6.33;2.00;;;6.10;49.00;;;;;;5091513;28;20583;-83
2022/03/27 10:11:41;;;;;;;7.00;1.83;;;6.20;47.60;;;;;;5090271;28;20380;-83
2022/03/27 10:14:08;;;;;;;5.43;1.93;;;6.40;48.50;;;;;;5096650;28;20177;-81
2022/03/27 10:16:42;;;;;;;4.53;2.70;;;6.70;49.60;;;;;;5096764;28;20194;-82
2022/03/27 10:19:29;;;;;;;4.47;2.40;;;7.20;53.00;;;;;;5100016;28;20185;-83
2022/03/27 10:21:55;;;;;;;4.43;1.93;;;6.90;49.30;;;;;;5097711;28;20190;-83
2022/03/27 10:24:25;;;;;;;6.63;2.17;;;12.30;53.40;;;;;;5095550;28;20181;-84
2022/03/27 10:26:55;;;;;;;1.77;1.63;;;;;;;;;;5086241;28;20532;-84
2022/03/27 10:29:22;;;;;;;3.80;2.07;;;7.30;48.30;;;;;;5086395;28;20601;-82
2022/03/27 10:31:49;;;;;;;3.67;1.97;;;;;;;;;;5097201;27;20205;-84
2022/03/27 10:34:15;;;;;;;5.00;2.13;;;;;;;;;;5105484;28;20182;-83
2022/03/27 10:36:50;;;;;;;7.10;2.13;;;;;;;;;;5074251;28;20234;-84
2022/03/27 10:39:31;;;;;;;5.67;2.47;;;;;;;;;;5086490;28;20269;-82
2022/03/27 10:42:00;;;;;;;5.07;2.90;;;;;;;;;;5077402;28;20256;-84
2022/03/27 10:44:48;;;;;;;6.50;1.73;;;;;;;;;;5076271;28;20191;-85
2022/03/27 10:47:15;;;;;;;4.50;2.07;;;;;;;;;;5068032;28;20269;-82
2022/03/27 10:49:41;;;;;;;2.53;1.60;;;;;;;;;;5053601;28;20719;-84
2022/03/27 10:52:08;;;;;;;6.80;2.00;;;;;;;;;;5078882;28;20190;-84
2022/03/27 10:54:54;;;;;;;2.20;1.57;;;;;;;;;;5082515;28;20234;-83
2022/03/27 10:57:30;;;;;;;3.17;1.57;;;;;;;;;;5064814;28;20229;-85
2022/03/27 10:59:57;;;;;;;4.80;1.90;;;;;;;;;;5068693;28;20268;-86
2022/03/27 11:02:43;;;;;;;4.47;2.07;;;;;;;;;;5046164;28;20993;-84
2022/03/27 11:05:09;;;;;;;6.17;1.80;;;;;;;;;;5066371;28;20230;-89
2022/03/27 11:07:35;;;;;;;4.97;2.03;;;;;;;;;;5052369;28;20195;-83
2022/03/27 11:10:01;;;;;;;3.03;1.93;;;;;;;;;;5051271;28;20195;-82
2022/03/27 11:12:31;;;;;;;3.10;1.57;;;7.40;42.30;;;;;;5053455;28;20200;-83
2022/03/27 11:15:06;;;;;;;3.90;1.60;;;;;;;;;;5053941;28;20297;-86
2022/03/27 11:17:40;;;;;;;4.13;1.80;;;7.10;43.20;;;;;;5066078;28;20643;-81
2022/03/27 11:20:11;;;;;;;3.23;1.70;;;7.10;43.40;;;;;;5059770;28;20192;-87
2022/03/27 11:22:47;;;;;;;4.10;2.53;;;7.40;44.20;;;;;;5045609;28;20201;-82
2022/03/27 11:25:23;;;;;;;7.23;2.00;;;7.70;70.00;;;;;;5057728;28;20181;-82
2022/03/27 11:28:07;;;;;;;4.47;1.47;;;7.20;66.90;;;;;;5054651;28;20199;-81
2022/03/27 11:30:40;;;;;;;4.03;1.83;;;7.10;67.90;;;;;;5056055;28;20191;-81
2022/03/27 11:33:25;;;;;;;2.40;1.60;;;7.20;42.40;;;;;;5067669;28;20683;-86
2022/03/27 11:36:16;;;;;;;3.20;1.23;;;7.70;41.60;;;;;;5084695;28;20233;-84
2022/03/27 11:38:54;;;;;;;3.43;1.60;;;7.90;62.40;;;;;;5059408;28;20789;-81
2022/03/27 11:41:30;;;;;;;1.90;1.23;;;7.70;61.60;;;;;;5063879;28;20196;-82
2022/03/27 11:44:18;;;;;;;4.40;2.10;;;7.60;39.70;;;;;;5084540;28;20201;-83
2022/03/27 11:46:48;;;;;;;3.93;1.33;;;7.80;38.60;;;;;;5063424;28;20571;-83
2022/03/27 11:49:14;;;;;;;6.60;1.70;;;;;;;;;;5079815;28;20624;-82
2022/03/27 11:51:41;;;;;;;4.20;1.50;;;;;;;;;;5071461;28;20593;-81
2022/03/27 11:54:21;;;;;;;2.23;1.50;;;7.90;38.60;;;;;;5053843;28;20191;-82
2022/03/27 11:56:58;;;;;;;4.90;1.80;;;8.10;57.40;;;;;;5086490;28;20202;-81
2022/03/27 11:59:28;;;;;;;2.23;1.50;;;8.00;39.10;;;;;;5053602;28;20201;-81
2022/03/27 12:02:00;;;;;;;4.30;1.80;;;8.30;39.00;;;;;;5060315;28;20193;-82
2022/03/27 12:04:26;;;;;;;1.97;1.20;;;;;;;;;;5083091;28;20661;-82
2022/03/27 12:06:56;;;;;;;1.87;1.20;;;8.00;41.00;;;;;;5073207;28;20186;-81
2022/03/27 12:09:30;;;;;;;2.47;1.27;;;8.30;37.30;;;;;;5088872;28;20681;-86
2022/03/27 12:12:23;;;;;;;2.60;1.30;;;8.40;36.80;;;;;;5070296;28;20192;-82
2022/03/27 12:15:08;;;;;;;11.10;1.40;;;8.60;58.10;;;;;;5062201;28;20202;-82
2022/03/27 12:17:44;;;;;;;2.27;1.27;;;8.50;36.70;;;;;;5067454;28;20297;-83
2022/03/27 12:20:11;;;;;;;5.80;1.63;;;8.60;56.90;;;;;;5086467;28;20190;-82
2022/03/27 12:22:46;;;;;;;2.13;1.27;;;8.50;45.90;;;;;;5091089;28;20182;-83
2022/03/27 12:25:29;;;;;;;1.80;1.50;;;8.50;36.60;;;;;;5072688;28;20186;-85
2022/03/27 12:30:53;;;;;;;2.47;1.50;;;8.30;36.00;;;;;;5092267;28;20773;-83
2022/03/27 12:33:23;;;;;;;3.17;1.37;;;8.60;37.10;;;;;;5078901;28;20672;-82
2022/03/27 12:36:04;;;;;;;3.43;2.03;;;12.00;38.50;;;;;;5088223;28;20230;-82
2022/03/27 12:38:31;;;;;;;3.37;1.40;;;9.00;54.70;;;;;;5112985;28;20202;-81
2022/03/27 12:40:57;;;;;;;4.40;1.67;;;;;;;;;;5100016;28;20186;-81
2022/03/27 12:43:23;;;;;;;6.13;2.23;;;;;;;;;;5103610;28;20185;-83
2022/03/27 12:45:49;;;;;;;3.73;1.90;;;9.30;55.60;;;;;;5111144;28;20178;-81
2022/03/27 12:48:20;;;;;;;3.57;2.40;;;9.30;36.50;;;;;;5110744;28;20239;-81
2022/03/27 12:50:54;;;;;;;4.27;2.17;;;9.20;36.40;;;;;;5112328;28;20231;-83
2022/03/27 12:53:23;;;;;;;3.73;2.07;;;8.40;36.10;;;;;;5101109;28;20193;-83
2022/03/27 12:55:51;;;;;;;4.37;1.70;;;9.30;37.20;;;;;;5098054;28;20277;-82
2022/03/27 12:58:38;;;;;;;4.13;1.63;;;9.70;37.20;;;;;;5096301;28;21440;-84
2022/03/27 13:01:16;;;;;;;3.27;1.40;;;9.30;55.30;;;;;;5108127;28;20550;-82
2022/03/27 13:04:00;;;;;;;3.53;1.90;;;9.70;46.10;;;;;;5092035;28;20182;-82
2022/03/27 13:06:44;;;;;;;3.67;1.97;;;9.70;36.80;;;;;;5095915;28;20193;-82
2022/03/27 13:09:19;;;;;;;4.93;2.23;;;10.10;56.80;;;;;;5099876;28;20222;-83
2022/03/27 13:11:45;;;;;;;3.07;1.63;;;9.80;51.50;;;;;;5093154;28;20672;-83
2022/03/27 13:14:14;;;;;;;6.32;1.70;;;10.40;57.20;;;;;;5106293;28;20713;-83
2022/03/27 13:16:43;;;;;;;2.73;1.80;;;9.70;37.30;;;;;;5106495;28;20650;-84
2022/03/27 13:19:14;;;;;;;3.20;1.60;;;9.40;58.70;;;;;;5097428;28;20198;-82
2022/03/27 13:21:42;;;;;;;2.57;1.50;;;9.30;59.40;;;;;;5113311;28;20688;-81
2022/03/27 13:24:17;;;;;;;4.17;1.40;;;10.00;56.10;;;;;;5105463;28;20194;-81
2022/03/27 13:26:45;;;;;;;4.20;1.43;;;10.30;57.90;;;;;;5092350;28;20528;-81
2022/03/27 13:29:11;;;;;;;3.70;1.90;;;;;;;;;;5096860;28;20178;-81
2022/03/27 13:31:38;;;;;;;4.60;2.00;;;10.40;56.40;;;;;;5096112;28;20235;-81